N7127V KASE-KBC
Flight info
| Callsign | N7127V |
|---|---|
| Flight time | N/A |
| Altitude | 17000 |
| Route | LINDZ1 DBL POWDR1 |
| Aircraft | B58P/L-SDFGRWY/LB1D1 |
Departure
| Time | 2026-04-11 13:12 |
|---|---|
| Airport | Aspen-Pitkin County Airport (Sardy Field) (KASE) |
Arrival
| Time | N/A |
|---|---|
| Airport | KBC |
| Time | Latitude | Longitude | Altitude | Speed | Heading |
|---|---|---|---|---|---|
| 2026-04-11 13:07 | 39.22220 | -106.86604 | 7756 ft | 0 kts | 253° |
| 2026-04-11 13:07 | 39.22211 | -106.86628 | 7757 ft | 7 kts | 232° |
| 2026-04-11 13:07 | 39.22154 | -106.86665 | 7761 ft | 11 kts | 190° |
| 2026-04-11 13:08 | 39.22067 | -106.86646 | 7769 ft | 14 kts | 160° |
| 2026-04-11 13:08 | 39.21972 | -106.86600 | 7780 ft | 15 kts | 159° |
| 2026-04-11 13:08 | 39.21869 | -106.86552 | 7789 ft | 17 kts | 160° |
| 2026-04-11 13:08 | 39.21744 | -106.86492 | 7798 ft | 21 kts | 159° |
| 2026-04-11 13:09 | 39.21614 | -106.86430 | 7810 ft | 18 kts | 159° |
| 2026-04-11 13:09 | 39.21499 | -106.86375 | 7816 ft | 17 kts | 159° |
| 2026-04-11 13:09 | 39.21390 | -106.86324 | 7825 ft | 16 kts | 160° |
| 2026-04-11 13:09 | 39.21284 | -106.86273 | 7832 ft | 16 kts | 159° |
| 2026-04-11 13:10 | 39.21221 | -106.86250 | 7835 ft | 0 kts | 188° |
| 2026-04-11 13:11 | 39.21191 | -106.86267 | 7835 ft | 10 kts | 224° |
| 2026-04-11 13:11 | 39.21197 | -106.86351 | 7830 ft | 13 kts | 338° |
| 2026-04-11 13:11 | 39.21535 | -106.86513 | 7816 ft | 96 kts | 339° |
| 2026-04-11 13:11 | 39.22341 | -106.86886 | 7934 ft | 135 kts | 339° |
| 2026-04-11 13:12 | 39.23284 | -106.87149 | 8382 ft | 143 kts | 350° |
| 2026-04-11 13:12 | 39.24286 | -106.87325 | 9055 ft | 147 kts | 352° |
| 2026-04-11 13:12 | 39.25322 | -106.87659 | 9162 ft | 162 kts | 335° |
| 2026-04-11 13:12 | 39.26249 | -106.88452 | 9604 ft | 161 kts | 311° |
| 2026-04-11 13:13 | 39.26880 | -106.89638 | 10061 ft | 161 kts | 290° |
| 2026-04-11 13:13 | 39.27291 | -106.90982 | 10533 ft | 157 kts | 286° |
| 2026-04-11 13:13 | 39.27680 | -106.92264 | 11121 ft | 150 kts | 286° |
| 2026-04-11 13:13 | 39.28069 | -106.93512 | 11564 ft | 152 kts | 284° |
| 2026-04-11 13:14 | 39.28445 | -106.94793 | 12076 ft | 151 kts | 284° |
| 2026-04-11 13:14 | 39.28828 | -106.96053 | 12580 ft | 150 kts | 284° |
| 2026-04-11 13:14 | 39.29218 | -106.97285 | 13097 ft | 149 kts | 284° |
| 2026-04-11 13:14 | 39.29626 | -106.98518 | 13603 ft | 149 kts | 284° |
| 2026-04-11 13:15 | 39.30040 | -106.99744 | 14081 ft | 148 kts | 284° |
| 2026-04-11 13:15 | 39.30460 | -107.00966 | 14526 ft | 149 kts | 284° |
| 2026-04-11 13:15 | 39.30887 | -107.02196 | 14962 ft | 151 kts | 284° |
| 2026-04-11 13:15 | 39.31315 | -107.03419 | 15376 ft | 152 kts | 284° |
| 2026-04-11 13:16 | 39.31728 | -107.04676 | 15800 ft | 152 kts | 282° |
| 2026-04-11 13:16 | 39.32171 | -107.05935 | 16194 ft | 160 kts | 292° |
| 2026-04-11 13:16 | 39.32871 | -107.07092 | 16605 ft | 165 kts | 297° |
| 2026-04-11 13:16 | 39.33650 | -107.08286 | 16727 ft | 185 kts | 299° |
| 2026-04-11 13:17 | 39.34533 | -107.09575 | 16734 ft | 202 kts | 302° |
| 2026-04-11 13:17 | 39.35524 | -107.10953 | 16734 ft | 216 kts | 309° |
| 2026-04-11 13:17 | 39.36950 | -107.11770 | 16738 ft | 241 kts | 344° |
| 2026-04-11 13:17 | 39.38655 | -107.11431 | 16801 ft | 258 kts | 22° |
| 2026-04-11 13:18 | 39.39993 | -107.09887 | 16819 ft | 262 kts | 60° |
| 2026-04-11 13:18 | 39.40596 | -107.07691 | 16829 ft | 259 kts | 82° |
| 2026-04-11 13:18 | 39.40931 | -107.05386 | 16831 ft | 261 kts | 85° |
| 2026-04-11 13:18 | 39.41294 | -107.03094 | 16855 ft | 265 kts | 80° |
| 2026-04-11 13:19 | 39.41756 | -107.00759 | 16854 ft | 268 kts | 78° |
| 2026-04-11 13:19 | 39.42224 | -106.98441 | 16865 ft | 266 kts | 79° |
| 2026-04-11 13:19 | 39.42669 | -106.96114 | 16875 ft | 266 kts | 80° |
| 2026-04-11 13:19 | 39.43103 | -106.93810 | 16872 ft | 267 kts | 79° |
| 2026-04-11 13:20 | 39.43550 | -106.91469 | 16880 ft | 268 kts | 79° |
| 2026-04-11 13:20 | 39.43776 | -106.89098 | 16881 ft | 263 kts | 100° |
| 2026-04-11 13:20 | 39.43395 | -106.86825 | 16779 ft | 257 kts | 112° |
| 2026-04-11 13:20 | 39.42925 | -106.84599 | 16775 ft | 256 kts | 112° |
| 2026-04-11 13:21 | 39.42461 | -106.82390 | 16772 ft | 253 kts | 111° |
| 2026-04-11 13:21 | 39.42003 | -106.80192 | 16772 ft | 254 kts | 112° |
| 2026-04-11 13:21 | 39.41546 | -106.78005 | 16772 ft | 256 kts | 112° |
| 2026-04-11 13:21 | 39.41078 | -106.75766 | 16794 ft | 258 kts | 112° |
| 2026-04-11 13:22 | 39.40608 | -106.73516 | 16794 ft | 258 kts | 111° |
| 2026-04-11 13:22 | 39.40144 | -106.71287 | 16796 ft | 254 kts | 112° |
| 2026-04-11 13:22 | 39.39685 | -106.69102 | 16783 ft | 255 kts | 111° |
| 2026-04-11 13:22 | 39.39218 | -106.66882 | 16797 ft | 256 kts | 111° |
| 2026-04-11 13:23 | 39.38750 | -106.64651 | 16795 ft | 257 kts | 111° |
| 2026-04-11 13:23 | 39.38280 | -106.62413 | 16818 ft | 258 kts | 111° |
| 2026-04-11 13:23 | 39.37814 | -106.60176 | 16819 ft | 258 kts | 111° |
| 2026-04-11 13:23 | 39.37339 | -106.57939 | 16922 ft | 257 kts | 111° |
| 2026-04-11 13:24 | 39.36873 | -106.55740 | 16943 ft | 258 kts | 111° |
| 2026-04-11 13:24 | 39.36401 | -106.53497 | 16965 ft | 258 kts | 111° |
| 2026-04-11 13:24 | 39.35926 | -106.51250 | 16982 ft | 259 kts | 111° |
| 2026-04-11 13:24 | 39.35450 | -106.49001 | 16997 ft | 259 kts | 111° |
| 2026-04-11 13:25 | 39.34975 | -106.46752 | 17014 ft | 258 kts | 111° |
| 2026-04-11 13:25 | 39.34503 | -106.44524 | 17035 ft | 257 kts | 111° |
| 2026-04-11 13:25 | 39.34027 | -106.42287 | 17024 ft | 257 kts | 111° |
| 2026-04-11 13:25 | 39.33560 | -106.40080 | 17059 ft | 254 kts | 111° |
| 2026-04-11 13:26 | 39.33097 | -106.37904 | 17065 ft | 254 kts | 111° |
| 2026-04-11 13:26 | 39.32631 | -106.35714 | 17071 ft | 252 kts | 111° |
| 2026-04-11 13:26 | 39.32164 | -106.33528 | 17082 ft | 252 kts | 111° |
| 2026-04-11 13:26 | 39.31697 | -106.31336 | 17091 ft | 253 kts | 111° |
| 2026-04-11 13:27 | 39.31229 | -106.29144 | 17095 ft | 254 kts | 111° |
| 2026-04-11 13:27 | 39.30760 | -106.26949 | 17090 ft | 253 kts | 111° |
| 2026-04-11 13:27 | 39.30291 | -106.24757 | 17086 ft | 253 kts | 111° |
| 2026-04-11 13:27 | 39.29831 | -106.22605 | 17075 ft | 251 kts | 111° |
| 2026-04-11 13:28 | 39.29366 | -106.20435 | 17069 ft | 250 kts | 111° |
| 2026-04-11 13:28 | 39.28900 | -106.18269 | 17070 ft | 252 kts | 111° |
| 2026-04-11 13:28 | 39.28432 | -106.16090 | 17054 ft | 252 kts | 111° |
| 2026-04-11 13:28 | 39.27964 | -106.13905 | 17030 ft | 251 kts | 110° |
| 2026-04-11 13:29 | 39.27498 | -106.11740 | 17023 ft | 249 kts | 111° |
| 2026-04-11 13:29 | 39.27032 | -106.09583 | 17008 ft | 249 kts | 111° |
| 2026-04-11 13:29 | 39.26566 | -106.07417 | 16989 ft | 249 kts | 111° |
| 2026-04-11 13:29 | 39.26102 | -106.05268 | 16976 ft | 248 kts | 111° |
| 2026-04-11 13:30 | 39.25645 | -106.03153 | 16965 ft | 248 kts | 111° |
| 2026-04-11 13:30 | 39.25180 | -106.01003 | 16951 ft | 248 kts | 111° |
| 2026-04-11 13:30 | 39.24716 | -105.98858 | 16932 ft | 247 kts | 111° |
| 2026-04-11 13:30 | 39.24252 | -105.96714 | 16918 ft | 248 kts | 111° |
| 2026-04-11 13:31 | 39.23784 | -105.94561 | 16904 ft | 250 kts | 111° |
| 2026-04-11 13:31 | 39.23316 | -105.92406 | 16842 ft | 250 kts | 111° |
| 2026-04-11 13:31 | 39.22845 | -105.90242 | 16848 ft | 252 kts | 111° |
| 2026-04-11 13:31 | 39.22376 | -105.88086 | 16844 ft | 252 kts | 111° |
| 2026-04-11 13:32 | 39.21901 | -105.85901 | 16845 ft | 253 kts | 111° |
| 2026-04-11 13:32 | 39.21421 | -105.83702 | 16846 ft | 254 kts | 111° |
| 2026-04-11 13:32 | 39.21037 | -105.81492 | 16848 ft | 260 kts | 97° |
| 2026-04-11 13:32 | 39.21330 | -105.79174 | 16845 ft | 266 kts | 69° |
| 2026-04-11 13:33 | 39.22304 | -105.77152 | 16845 ft | 265 kts | 51° |
| 2026-04-11 13:33 | 39.23051 | -105.75904 | 16848 ft | 266 kts | 50° |
| 2026-04-11 13:33 | 39.24186 | -105.74013 | 16853 ft | 267 kts | 51° |
| 2026-04-11 13:33 | 39.25324 | -105.72109 | 16855 ft | 267 kts | 51° |
| 2026-04-11 13:34 | 39.26462 | -105.70201 | 16854 ft | 268 kts | 51° |
| 2026-04-11 13:34 | 39.27597 | -105.68292 | 16855 ft | 267 kts | 51° |
| 2026-04-11 13:34 | 39.28712 | -105.66407 | 16855 ft | 268 kts | 51° |
| 2026-04-11 13:34 | 39.29845 | -105.64500 | 16855 ft | 268 kts | 51° |
| 2026-04-11 13:35 | 39.30981 | -105.62587 | 16840 ft | 268 kts | 51° |
| 2026-04-11 13:35 | 39.32122 | -105.60669 | 16836 ft | 269 kts | 51° |
| 2026-04-11 13:35 | 39.33258 | -105.58750 | 16827 ft | 268 kts | 51° |
| 2026-04-11 13:35 | 39.34392 | -105.56830 | 16830 ft | 268 kts | 51° |
| 2026-04-11 13:36 | 39.35529 | -105.54911 | 16856 ft | 267 kts | 51° |
| 2026-04-11 13:36 | 39.36634 | -105.53044 | 16956 ft | 263 kts | 51° |
| 2026-04-11 13:36 | 39.37749 | -105.51159 | 16960 ft | 263 kts | 51° |
| 2026-04-11 13:36 | 39.38861 | -105.49278 | 16948 ft | 264 kts | 51° |
| 2026-04-11 13:37 | 39.39993 | -105.47407 | 16951 ft | 264 kts | 47° |
| 2026-04-11 13:37 | 39.41248 | -105.45670 | 16919 ft | 265 kts | 43° |
| 2026-04-11 13:37 | 39.42525 | -105.43950 | 16711 ft | 270 kts | 45° |
| 2026-04-11 13:37 | 39.43792 | -105.42135 | 16488 ft | 272 kts | 46° |
| 2026-04-11 13:38 | 39.45051 | -105.40301 | 16264 ft | 272 kts | 46° |
| 2026-04-11 13:38 | 39.46325 | -105.38471 | 16042 ft | 271 kts | 45° |
| 2026-04-11 13:38 | 39.47588 | -105.36669 | 15821 ft | 270 kts | 45° |
| 2026-04-11 13:38 | 39.48831 | -105.34888 | 15577 ft | 269 kts | 45° |
| 2026-04-11 13:39 | 39.50087 | -105.33085 | 15361 ft | 269 kts | 45° |
| 2026-04-11 13:39 | 39.51333 | -105.31294 | 15144 ft | 267 kts | 45° |
| 2026-04-11 13:39 | 39.52577 | -105.29508 | 14920 ft | 266 kts | 45° |
| 2026-04-11 13:39 | 39.53816 | -105.27727 | 14696 ft | 264 kts | 46° |
| 2026-04-11 13:40 | 39.55038 | -105.25968 | 14486 ft | 261 kts | 46° |
| 2026-04-11 13:40 | 39.56249 | -105.24226 | 14263 ft | 259 kts | 46° |
| 2026-04-11 13:40 | 39.57453 | -105.22493 | 14056 ft | 257 kts | 46° |
| 2026-04-11 13:40 | 39.58648 | -105.20772 | 13843 ft | 256 kts | 45° |
| 2026-04-11 13:41 | 39.59834 | -105.19061 | 13623 ft | 254 kts | 45° |
| 2026-04-11 13:41 | 39.60999 | -105.17382 | 13397 ft | 253 kts | 45° |
| 2026-04-11 13:41 | 39.62172 | -105.15689 | 13169 ft | 252 kts | 45° |
| 2026-04-11 13:41 | 39.63340 | -105.14003 | 12942 ft | 250 kts | 46° |
| 2026-04-11 13:42 | 39.64504 | -105.12320 | 12718 ft | 249 kts | 46° |
| 2026-04-11 13:42 | 39.65659 | -105.10651 | 12493 ft | 248 kts | 46° |
| 2026-04-11 13:42 | 39.66810 | -105.08986 | 12269 ft | 246 kts | 46° |
| 2026-04-11 13:42 | 39.67953 | -105.07333 | 12048 ft | 245 kts | 46° |
| 2026-04-11 13:43 | 39.69075 | -105.05708 | 11831 ft | 243 kts | 46° |
| 2026-04-11 13:43 | 39.70206 | -105.04070 | 11612 ft | 242 kts | 46° |
| 2026-04-11 13:43 | 39.71328 | -105.02444 | 11395 ft | 241 kts | 46° |
| 2026-04-11 13:43 | 39.72443 | -105.00826 | 11179 ft | 239 kts | 46° |
| 2026-04-11 13:44 | 39.73549 | -104.99222 | 10956 ft | 238 kts | 46° |
| 2026-04-11 13:44 | 39.74683 | -104.97662 | 10739 ft | 235 kts | 37° |
| 2026-04-11 13:44 | 39.76143 | -104.96804 | 10528 ft | 226 kts | 12° |
| 2026-04-11 13:44 | 39.77616 | -104.96496 | 10218 ft | 210 kts | 1° |
| 2026-04-11 13:45 | 39.79069 | -104.96509 | 9703 ft | 208 kts | 353° |
| 2026-04-11 13:45 | 39.80486 | -104.96757 | 9175 ft | 203 kts | 345° |
| 2026-04-11 13:45 | 39.81818 | -104.97302 | 8612 ft | 198 kts | 335° |
| 2026-04-11 13:45 | 39.83034 | -104.98080 | 8015 ft | 193 kts | 326° |
| 2026-04-11 13:46 | 39.84084 | -104.99132 | 7494 ft | 186 kts | 312° |
| 2026-04-11 13:46 | 39.84922 | -105.00314 | 7345 ft | 169 kts | 306° |
| 2026-04-11 13:46 | 39.85623 | -105.01451 | 7245 ft | 154 kts | 302° |
| 2026-04-11 13:46 | 39.86215 | -105.02522 | 7194 ft | 142 kts | 300° |
| 2026-04-11 13:47 | 39.86781 | -105.03545 | 7077 ft | 136 kts | 300° |
| 2026-04-11 13:47 | 39.87300 | -105.04543 | 6912 ft | 129 kts | 296° |
| 2026-04-11 13:47 | 39.87773 | -105.05532 | 6679 ft | 126 kts | 296° |
| 2026-04-11 13:47 | 39.88222 | -105.06467 | 6468 ft | 119 kts | 297° |
| 2026-04-11 13:48 | 39.88668 | -105.07368 | 6215 ft | 117 kts | 300° |
| 2026-04-11 13:48 | 39.89089 | -105.08194 | 6011 ft | 104 kts | 302° |
| 2026-04-11 13:48 | 39.89492 | -105.08975 | 5830 ft | 102 kts | 304° |
| 2026-04-11 13:48 | 39.89895 | -105.09740 | 5666 ft | 102 kts | 304° |
| 2026-04-11 13:49 | 39.90287 | -105.10480 | 5596 ft | 89 kts | 304° |
| 2026-04-11 13:49 | 39.90565 | -105.11007 | 5620 ft | 53 kts | 304° |
| 2026-04-11 13:49 | 39.90737 | -105.11277 | 5631 ft | 30 kts | 325° |
| 2026-04-11 13:49 | 39.90844 | -105.11288 | 5636 ft | 15 kts | 104° |
| 2026-04-11 13:50 | 39.90800 | -105.11196 | 5631 ft | 8 kts | 105° |
| 2026-04-11 13:50 | 39.90830 | -105.11178 | 5632 ft | 7 kts | 301° |
| 2026-04-11 13:50 | 39.90855 | -105.11231 | 5635 ft | 7 kts | 303° |
| 2026-04-11 13:50 | 39.90892 | -105.11302 | 5637 ft | 10 kts | 304° |
| 2026-04-11 13:51 | 39.90919 | -105.11293 | 5636 ft | 6 kts | 145° |
| 2026-04-11 13:51 | 39.90903 | -105.11267 | 5636 ft | 0 kts | 127° |
| 2026-04-11 13:51 | 39.90903 | -105.11268 | 5636 ft | 0 kts | 127° |
| 2026-04-11 16:44 | 39.90903 | -105.11267 | 5645 ft | 0 kts | 127° |
| 2026-04-11 16:45 | 39.90903 | -105.11268 | 5645 ft | 0 kts | 127° |
| 2026-04-11 16:46 | 39.90903 | -105.11267 | 5645 ft | 0 kts | 127° |
| 2026-04-11 16:46 | 39.90903 | -105.11268 | 5645 ft | 0 kts | 127° |
| 2026-04-11 16:47 | 39.90903 | -105.11267 | 5645 ft | 0 kts | 127° |
| 2026-04-11 16:47 | 39.90903 | -105.11268 | 5645 ft | 0 kts | 127° |
| 2026-04-11 16:48 | 39.90903 | -105.11267 | 5645 ft | 0 kts | 127° |
| 2026-04-11 16:48 | 39.90903 | -105.11268 | 5645 ft | 0 kts | 127° |
| 2026-04-11 16:49 | 39.90903 | -105.11267 | 5645 ft | 0 kts | 127° |
| 2026-04-11 16:52 | 39.90903 | -105.11268 | 5645 ft | 0 kts | 127° |
| 2026-04-11 16:52 | 39.90903 | -105.11267 | 5645 ft | 0 kts | 127° |
| 2026-04-11 16:54 | 39.90903 | -105.11268 | 5645 ft | 0 kts | 127° |
| 2026-04-11 16:54 | 39.90903 | -105.11267 | 5645 ft | 0 kts | 127° |
| 2026-04-11 16:54 | 39.90903 | -105.11268 | 5645 ft | 0 kts | 127° |
| 2026-04-11 16:55 | 39.90903 | -105.11267 | 5645 ft | 0 kts | 127° |
| 2026-04-11 16:55 | 39.90903 | -105.11268 | 5645 ft | 0 kts | 127° |
| 2026-04-11 16:56 | 39.90903 | -105.11267 | 5645 ft | 0 kts | 127° |
| 2026-04-11 16:56 | 39.90903 | -105.11268 | 5645 ft | 0 kts | 127° |
| 2026-04-11 16:57 | 39.90903 | -105.11267 | 5645 ft | 0 kts | 127° |
| 2026-04-11 16:57 | 39.90903 | -105.11268 | 5645 ft | 0 kts | 127° |
| 2026-04-11 16:58 | 39.90903 | -105.11267 | 5645 ft | 0 kts | 127° |
| 2026-04-11 16:58 | 39.90903 | -105.11268 | 5645 ft | 0 kts | 127° |
| 2026-04-11 16:59 | 39.90903 | -105.11267 | 5645 ft | 0 kts | 127° |
| 2026-04-11 18:00 | 39.90903 | -105.11268 | 5636 ft | 0 kts | 127° |
| 2026-04-11 18:02 | 39.90903 | -105.11267 | 5636 ft | 0 kts | 127° |
| 2026-04-11 18:02 | 39.90903 | -105.11268 | 5636 ft | 0 kts | 127° |
| 2026-04-11 18:05 | 39.90903 | -105.11267 | 5636 ft | 0 kts | 127° |
| 2026-04-11 18:05 | 39.90903 | -105.11268 | 5636 ft | 0 kts | 127° |
| 2026-04-11 18:08 | 39.90903 | -105.11267 | 5636 ft | 0 kts | 127° |
| 2026-04-11 18:08 | 39.90903 | -105.11268 | 5636 ft | 0 kts | 127° |
| 2026-04-11 18:11 | 39.90903 | -105.11267 | 5636 ft | 0 kts | 127° |
| 2026-04-11 18:11 | 39.90903 | -105.11268 | 5636 ft | 0 kts | 127° |
| 2026-04-11 18:14 | 39.90903 | -105.11267 | 5636 ft | 0 kts | 127° |
| 2026-04-11 18:14 | 39.90903 | -105.11268 | 5636 ft | 0 kts | 127° |
| 2026-04-11 18:17 | 39.90903 | -105.11267 | 5673 ft | 0 kts | 127° |
| 2026-04-11 18:17 | 39.90903 | -105.11268 | 5673 ft | 0 kts | 127° |
| 2026-04-11 18:18 | 39.90903 | -105.11267 | 5673 ft | 0 kts | 127° |
| 2026-04-11 18:18 | 39.90903 | -105.11268 | 5673 ft | 0 kts | 127° |
| 2026-04-11 18:20 | 39.90903 | -105.11267 | 5673 ft | 0 kts | 127° |
| 2026-04-11 18:20 | 39.90903 | -105.11268 | 5673 ft | 0 kts | 127° |
| 2026-04-11 18:22 | 39.90903 | -105.11267 | 5673 ft | 0 kts | 127° |
| 2026-04-11 18:22 | 39.90903 | -105.11268 | 5673 ft | 0 kts | 127° |
| 2026-04-11 18:23 | 39.90903 | -105.11267 | 5673 ft | 0 kts | 127° |
| 2026-04-11 18:23 | 39.90903 | -105.11268 | 5673 ft | 0 kts | 127° |
| 2026-04-11 18:24 | 39.90903 | -105.11267 | 5673 ft | 0 kts | 127° |
| 2026-04-11 18:24 | 39.90903 | -105.11268 | 5673 ft | 0 kts | 127° |
| 2026-04-11 18:26 | 39.90903 | -105.11267 | 5673 ft | 0 kts | 127° |
| 2026-04-11 18:26 | 39.90903 | -105.11268 | 5673 ft | 0 kts | 127° |
| 2026-04-11 18:27 | 39.90903 | -105.11267 | 5673 ft | 0 kts | 127° |
| 2026-04-11 18:27 | 39.90903 | -105.11268 | 5673 ft | 0 kts | 127° |
| 2026-04-11 18:29 | 39.90903 | -105.11267 | 5673 ft | 0 kts | 127° |
| 2026-04-11 18:29 | 39.90903 | -105.11268 | 5636 ft | 0 kts | 127° |
| 2026-04-11 21:11 | 39.90903 | -105.11267 | 5636 ft | 0 kts | 127° |
| 2026-04-11 21:11 | 39.90903 | -105.11268 | 5636 ft | 0 kts | 127° |
| 2026-04-11 21:16 | 39.90903 | -105.11267 | 5645 ft | 0 kts | 127° |
| 2026-04-11 21:18 | 39.90903 | -105.11268 | 5645 ft | 0 kts | 127° |
| 2026-04-11 21:19 | 39.90903 | -105.11267 | 5645 ft | 0 kts | 127° |
| 2026-04-11 21:22 | 39.90903 | -105.11268 | 5645 ft | 0 kts | 127° |
| 2026-04-11 21:22 | 39.90903 | -105.11267 | 5645 ft | 0 kts | 127° |
| 2026-04-11 21:24 | 39.90903 | -105.11268 | 5645 ft | 0 kts | 127° |
| 2026-04-11 21:24 | 39.90903 | -105.11267 | 5645 ft | 0 kts | 127° |
| 2026-04-11 21:27 | 39.90903 | -105.11268 | 5645 ft | 0 kts | 127° |
| 2026-04-11 21:28 | 39.90903 | -105.11267 | 5645 ft | 0 kts | 127° |
| 2026-04-11 21:46 | 39.90903 | -105.11268 | 5645 ft | 0 kts | 127° |
| 2026-04-11 21:46 | 39.90903 | -105.11267 | 5645 ft | 0 kts | 127° |
| 2026-04-11 21:46 | 39.90903 | -105.11268 | 5645 ft | 0 kts | 127° |
| 2026-04-11 21:47 | 39.90903 | -105.11267 | 5645 ft | 0 kts | 127° |
| 2026-04-11 21:47 | 39.90903 | -105.11268 | 5645 ft | 0 kts | 127° |
| 2026-04-11 21:48 | 39.90903 | -105.11267 | 5645 ft | 0 kts | 127° |
| 2026-04-11 21:48 | 39.90903 | -105.11268 | 5645 ft | 0 kts | 127° |
| 2026-04-11 21:49 | 39.90903 | -105.11267 | 5645 ft | 0 kts | 127° |
| 2026-04-11 21:51 | 39.90903 | -105.11268 | 5645 ft | 0 kts | 127° |
| 2026-04-11 21:52 | 39.90903 | -105.11267 | 5645 ft | 0 kts | 127° |
| 2026-04-11 21:52 | 39.90903 | -105.11268 | 5645 ft | 0 kts | 127° |
| 2026-04-11 21:52 | 39.90903 | -105.11267 | 5645 ft | 0 kts | 127° |
| 2026-04-11 21:54 | 39.90903 | -105.11268 | 5645 ft | 0 kts | 127° |
| 2026-04-11 21:55 | 39.90903 | -105.11267 | 5645 ft | 0 kts | 127° |
| 2026-04-11 21:55 | 39.90903 | -105.11268 | 5645 ft | 0 kts | 127° |
| 2026-04-11 21:56 | 39.90903 | -105.11267 | 5645 ft | 0 kts | 127° |
| 2026-04-11 21:56 | 39.90903 | -105.11268 | 5645 ft | 0 kts | 127° |
| 2026-04-11 21:57 | 39.90903 | -105.11267 | 5645 ft | 0 kts | 127° |
| 2026-04-11 21:57 | 39.90903 | -105.11268 | 5645 ft | 0 kts | 127° |
| 2026-04-11 21:58 | 39.90903 | -105.11267 | 5645 ft | 0 kts | 127° |
| 2026-04-11 21:59 | 39.90903 | -105.11268 | 5645 ft | 0 kts | 127° |
| 2026-04-11 22:00 | 39.90903 | -105.11267 | 5645 ft | 0 kts | 127° |
| 2026-04-11 22:00 | 39.90903 | -105.11268 | 5655 ft | 0 kts | 127° |
| 2026-04-11 22:09 | 39.90903 | -105.11267 | 5636 ft | 0 kts | 127° |
| 2026-04-11 22:09 | 39.90903 | -105.11268 | 5636 ft | 0 kts | 127° |
| 2026-04-11 22:15 | 39.90903 | -105.11267 | 5636 ft | 0 kts | 127° |
| 2026-04-11 22:15 | 39.90903 | -105.11268 | 5636 ft | 0 kts | 127° |
| 2026-04-11 22:16 | 39.90903 | -105.11267 | 5636 ft | 0 kts | 127° |
| 2026-04-11 22:16 | 39.90903 | -105.11268 | 5636 ft | 0 kts | 127° |
| 2026-04-11 22:17 | 39.90903 | -105.11267 | 5636 ft | 0 kts | 127° |
| 2026-04-11 22:18 | 39.90903 | -105.11268 | 5636 ft | 0 kts | 127° |
| 2026-04-11 22:18 | 39.90903 | -105.11267 | 5636 ft | 0 kts | 127° |
| 2026-04-11 22:18 | 39.90903 | -105.11268 | 5636 ft | 0 kts | 127° |
| 2026-04-11 22:19 | 39.90903 | -105.11267 | 5636 ft | 0 kts | 127° |
| 2026-04-11 22:19 | 39.90903 | -105.11268 | 5636 ft | 0 kts | 127° |
| 2026-04-11 22:20 | 39.90903 | -105.11267 | 5636 ft | 0 kts | 127° |
| 2026-04-11 22:20 | 39.90903 | -105.11268 | 5636 ft | 0 kts | 127° |
| 2026-04-11 22:22 | 39.90903 | -105.11267 | 5636 ft | 0 kts | 127° |
| 2026-04-11 22:22 | 39.90903 | -105.11268 | 5636 ft | 0 kts | 127° |
| 2026-04-11 22:23 | 39.90903 | -105.11267 | 5636 ft | 0 kts | 127° |
| 2026-04-11 22:23 | 39.90903 | -105.11268 | 5636 ft | 0 kts | 127° |
| 2026-04-11 22:23 | 39.90903 | -105.11267 | 5636 ft | 0 kts | 127° |
| 2026-04-11 22:23 | 39.90903 | -105.11268 | 5636 ft | 0 kts | 127° |
| 2026-04-11 22:24 | 39.90903 | -105.11267 | 5636 ft | 0 kts | 127° |
| 2026-04-11 22:24 | 39.90903 | -105.11268 | 5636 ft | 0 kts | 127° |
| 2026-04-11 22:25 | 39.90903 | -105.11267 | 5636 ft | 0 kts | 127° |
| 2026-04-11 22:25 | 39.90903 | -105.11268 | 5636 ft | 0 kts | 127° |
| 2026-04-11 22:25 | 39.90903 | -105.11267 | 5636 ft | 0 kts | 127° |
| 2026-04-11 22:27 | 39.90903 | -105.11268 | 5636 ft | 0 kts | 127° |
| 2026-04-11 22:27 | 39.90903 | -105.11267 | 5636 ft | 0 kts | 127° |
| 2026-04-11 22:27 | 39.90903 | -105.11268 | 5636 ft | 0 kts | 127° |
| 2026-04-11 22:28 | 39.90903 | -105.11267 | 5636 ft | 0 kts | 127° |
| 2026-04-11 22:28 | 39.90903 | -105.11268 | 5636 ft | 0 kts | 127° |
| 2026-04-11 22:29 | 39.90903 | -105.11267 | 5636 ft | 0 kts | 127° |
| 2026-04-11 22:30 | 39.90903 | -105.11268 | 5636 ft | 0 kts | 127° |
| 2026-04-11 22:31 | 39.90903 | -105.11267 | 5636 ft | 0 kts | 127° |
| 2026-04-11 22:31 | 39.90903 | -105.11268 | 5636 ft | 0 kts | 127° |
| 2026-04-11 22:32 | 39.90903 | -105.11267 | 5636 ft | 0 kts | 127° |
| 2026-04-11 22:32 | 39.90903 | -105.11268 | 5636 ft | 0 kts | 127° |
| 2026-04-11 22:33 | 39.90903 | -105.11267 | 5636 ft | 0 kts | 127° |
| 2026-04-11 22:33 | 39.90903 | -105.11268 | 5636 ft | 0 kts | 127° |
| 2026-04-11 22:34 | 39.90903 | -105.11267 | 5636 ft | 0 kts | 127° |
| 2026-04-11 22:35 | 39.90903 | -105.11268 | 5636 ft | 0 kts | 127° |
| 2026-04-11 22:36 | 39.90903 | -105.11267 | 5636 ft | 0 kts | 127° |
| 2026-04-11 22:36 | 39.90903 | -105.11268 | 5636 ft | 0 kts | 127° |
| 2026-04-11 22:36 | 39.90903 | -105.11267 | 5636 ft | 0 kts | 127° |
| 2026-04-11 22:37 | 39.90903 | -105.11268 | 5636 ft | 0 kts | 127° |
| 2026-04-11 22:37 | 39.90903 | -105.11267 | 5636 ft | 0 kts | 127° |
| 2026-04-11 22:37 | 39.90903 | -105.11268 | 5636 ft | 0 kts | 127° |
| 2026-04-11 22:37 | 39.90903 | -105.11267 | 5636 ft | 0 kts | 127° |
| 2026-04-11 22:39 | 39.90903 | -105.11268 | 5636 ft | 0 kts | 127° |
| 2026-04-11 22:40 | 39.90903 | -105.11267 | 5636 ft | 0 kts | 127° |
| 2026-04-11 22:40 | 39.90903 | -105.11268 | 5636 ft | 0 kts | 127° |
| 2026-04-11 22:41 | 39.90903 | -105.11267 | 5636 ft | 0 kts | 127° |
| 2026-04-11 22:41 | 39.90903 | -105.11268 | 5636 ft | 0 kts | 127° |
| 2026-04-11 22:42 | 39.90903 | -105.11267 | 5636 ft | 0 kts | 127° |
| 2026-04-11 22:42 | 39.90903 | -105.11268 | 5636 ft | 0 kts | 127° |
| 2026-04-11 22:43 | 39.90903 | -105.11267 | 5636 ft | 0 kts | 127° |
| 2026-04-11 22:43 | 39.90903 | -105.11268 | 5636 ft | 0 kts | 127° |
| 2026-04-11 22:44 | 39.90903 | -105.11267 | 5636 ft | 0 kts | 127° |
| 2026-04-11 22:44 | 39.90903 | -105.11268 | 5636 ft | 0 kts | 127° |
| 2026-04-11 22:45 | 39.90903 | -105.11267 | 5636 ft | 0 kts | 127° |
| 2026-04-11 22:45 | 39.90903 | -105.11268 | 5636 ft | 0 kts | 127° |
| 2026-04-11 22:45 | 39.90903 | -105.11267 | 5636 ft | 0 kts | 127° |
| 2026-04-11 22:46 | 39.90903 | -105.11268 | 5636 ft | 0 kts | 127° |
| 2026-04-11 22:46 | 39.90903 | -105.11267 | 5636 ft | 0 kts | 127° |
| 2026-04-11 22:48 | 39.90903 | -105.11268 | 5636 ft | 0 kts | 127° |
| 2026-04-11 22:49 | 39.90903 | -105.11267 | 5636 ft | 0 kts | 127° |
| 2026-04-11 22:51 | 39.90903 | -105.11268 | 5636 ft | 0 kts | 127° |
| 2026-04-11 22:52 | 39.90903 | -105.11267 | 5636 ft | 0 kts | 127° |
| 2026-04-11 22:57 | 39.90903 | -105.11268 | 5636 ft | 0 kts | 127° |
| 2026-04-11 22:58 | 39.90903 | -105.11267 | 5636 ft | 0 kts | 127° |
| 2026-04-11 23:01 | 39.90903 | -105.11268 | 5645 ft | 0 kts | 127° |
| 2026-04-11 23:02 | 39.90903 | -105.11267 | 5645 ft | 0 kts | 127° |
| 2026-04-11 23:02 | 39.90903 | -105.11268 | 5645 ft | 0 kts | 127° |
| 2026-04-11 23:03 | 39.90903 | -105.11267 | 5645 ft | 0 kts | 127° |
| 2026-04-11 23:03 | 39.90903 | -105.11268 | 5645 ft | 0 kts | 127° |
| 2026-04-11 23:04 | 39.90903 | -105.11267 | 5645 ft | 0 kts | 127° |
| 2026-04-11 23:04 | 39.90903 | -105.11268 | 5645 ft | 0 kts | 127° |
| 2026-04-11 23:04 | 39.90903 | -105.11267 | 5645 ft | 0 kts | 127° |
| 2026-04-11 23:06 | 39.90903 | -105.11268 | 5645 ft | 0 kts | 127° |
| 2026-04-11 23:06 | 39.90903 | -105.11267 | 5645 ft | 0 kts | 127° |
| 2026-04-11 23:06 | 39.90903 | -105.11268 | 5645 ft | 0 kts | 127° |
| 2026-04-11 23:07 | 39.90903 | -105.11267 | 5645 ft | 0 kts | 127° |
| 2026-04-11 23:07 | 39.90903 | -105.11268 | 5645 ft | 0 kts | 127° |
| 2026-04-11 23:08 | 39.90903 | -105.11267 | 5645 ft | 0 kts | 127° |
| 2026-04-11 23:08 | 39.90903 | -105.11268 | 5645 ft | 0 kts | 127° |
| 2026-04-11 23:09 | 39.90903 | -105.11267 | 5645 ft | 0 kts | 127° |
| 2026-04-11 23:09 | 39.90903 | -105.11268 | 5645 ft | 0 kts | 127° |
| 2026-04-11 23:10 | 39.90903 | -105.11267 | 5645 ft | 0 kts | 127° |
| 2026-04-11 23:10 | 39.90903 | -105.11268 | 5645 ft | 0 kts | 127° |
| 2026-04-11 23:11 | 39.90903 | -105.11267 | 5645 ft | 0 kts | 127° |
| 2026-04-11 23:11 | 39.90903 | -105.11268 | 5645 ft | 0 kts | 127° |
| 2026-04-11 23:12 | 39.90903 | -105.11267 | 5645 ft | 0 kts | 127° |
| 2026-04-11 23:12 | 39.90903 | -105.11268 | 5645 ft | 0 kts | 127° |
| 2026-04-11 23:13 | 39.90903 | -105.11267 | 5645 ft | 0 kts | 127° |
| 2026-04-11 23:13 | 39.90903 | -105.11268 | 5645 ft | 0 kts | 127° |
| 2026-04-11 23:13 | 39.90903 | -105.11267 | 5645 ft | 0 kts | 127° |
| 2026-04-11 23:14 | 39.90903 | -105.11268 | 5645 ft | 0 kts | 127° |
| 2026-04-11 23:15 | 39.90903 | -105.11267 | 5645 ft | 0 kts | 127° |
| 2026-04-11 23:15 | 39.90903 | -105.11268 | 5645 ft | 0 kts | 127° |
| 2026-04-12 00:00 | 39.90903 | -105.11267 | 5636 ft | 0 kts | 127° |
| 2026-04-12 01:48 | 39.90903 | -105.11268 | 5771 ft | 0 kts | 127° |
| 2026-04-12 01:49 | 39.90903 | -105.11267 | 5771 ft | 0 kts | 127° |
| 2026-04-12 01:52 | 39.90903 | -105.11268 | 5771 ft | 0 kts | 127° |
| 2026-04-12 01:52 | 39.90903 | -105.11267 | 5771 ft | 0 kts | 127° |
| 2026-04-12 01:54 | 39.90903 | -105.11268 | 5771 ft | 0 kts | 127° |
| 2026-04-12 01:55 | 39.90903 | -105.11267 | 5771 ft | 0 kts | 127° |
| 2026-04-12 01:57 | 39.90903 | -105.11268 | 5771 ft | 0 kts | 127° |
| 2026-04-12 01:58 | 39.90903 | -105.11267 | 5771 ft | 0 kts | 127° |
| 2026-04-12 02:00 | 39.90903 | -105.11268 | 5630 ft | 0 kts | 127° |
| 2026-04-12 04:00 | 39.90903 | -105.11267 | 5636 ft | 0 kts | 127° |
| 2026-04-12 04:00 | 39.90903 | -105.11268 | 5636 ft | 0 kts | 127° |
| 2026-04-12 04:02 | 39.90903 | -105.11267 | 5636 ft | 0 kts | 127° |
| 2026-04-12 04:03 | 39.90903 | -105.11268 | 5636 ft | 0 kts | 127° |
| 2026-04-12 04:03 | 39.90903 | -105.11267 | 5636 ft | 0 kts | 127° |
| 2026-04-12 04:03 | 39.90903 | -105.11268 | 5636 ft | 0 kts | 127° |
| 2026-04-12 04:04 | 39.90903 | -105.11267 | 5636 ft | 0 kts | 127° |
| 2026-04-12 04:04 | 39.90903 | -105.11268 | 5636 ft | 0 kts | 127° |
| 2026-04-12 04:05 | 39.90903 | -105.11267 | 5636 ft | 0 kts | 127° |
| 2026-04-12 04:05 | 39.90903 | -105.11268 | 5636 ft | 0 kts | 127° |
| 2026-04-12 04:06 | 39.90903 | -105.11267 | 5636 ft | 0 kts | 127° |
| 2026-04-12 04:06 | 39.90903 | -105.11268 | 5636 ft | 0 kts | 127° |
| 2026-04-12 04:06 | 39.90903 | -105.11267 | 5636 ft | 0 kts | 127° |
| 2026-04-12 04:06 | 39.90903 | -105.11268 | 5636 ft | 0 kts | 127° |
| 2026-04-12 04:07 | 39.90903 | -105.11267 | 5636 ft | 0 kts | 127° |
| 2026-04-12 04:07 | 39.90903 | -105.11268 | 5636 ft | 0 kts | 127° |
| 2026-04-12 04:08 | 39.90903 | -105.11267 | 5636 ft | 0 kts | 127° |
| 2026-04-12 04:08 | 39.90903 | -105.11268 | 5636 ft | 0 kts | 127° |
| 2026-04-12 04:09 | 39.90903 | -105.11267 | 5636 ft | 0 kts | 127° |
| 2026-04-12 04:09 | 39.90903 | -105.11268 | 5636 ft | 0 kts | 127° |
| 2026-04-12 04:10 | 39.90903 | -105.11267 | 5636 ft | 0 kts | 127° |
| 2026-04-12 04:12 | 39.90903 | -105.11268 | 5636 ft | 0 kts | 127° |
| 2026-04-12 04:12 | 39.90903 | -105.11267 | 5636 ft | 0 kts | 127° |
| 2026-04-12 04:12 | 39.90903 | -105.11268 | 5636 ft | 0 kts | 127° |
| 2026-04-12 04:13 | 39.90903 | -105.11267 | 5636 ft | 0 kts | 127° |
| 2026-04-12 04:13 | 39.90903 | -105.11268 | 5636 ft | 0 kts | 127° |
| 2026-04-12 04:14 | 39.90903 | -105.11267 | 5636 ft | 0 kts | 127° |
| 2026-04-12 04:14 | 39.90903 | -105.11268 | 5636 ft | 0 kts | 127° |
| 2026-04-12 04:15 | 39.90903 | -105.11267 | 5636 ft | 0 kts | 127° |
| 2026-04-12 04:15 | 39.90903 | -105.11268 | 5636 ft | 0 kts | 127° |
| 2026-04-12 04:16 | 39.90903 | -105.11267 | 5636 ft | 0 kts | 127° |
| 2026-04-12 04:16 | 39.90903 | -105.11268 | 5636 ft | 0 kts | 127° |
| 2026-04-12 04:17 | 39.90903 | -105.11267 | 5636 ft | 0 kts | 127° |
| 2026-04-12 05:33 | 39.90903 | -105.11268 | 5636 ft | 0 kts | 127° |